CheckWX is a tool to help pilots better visualize weather data.  It is not intended as a substitute for an official pre-flight weather briefing.

06:54:56 UTC

KAJO METAR
Corona Municipal Airport
Corona, California, USA
Current

59 mins ago

KAJO 280556Z AUTO 26006KT 10SM CLR 17/14 A2997 RMK AO2 SLP142 6//// T01720144 10289 20172 51025
Observed
May-28 @ 05:56 UTC
Wind
  • 260° at 6 KTS
Visibility
Flight Rules
VFR
Cloud Levels
  • Clear skies
Temperature
17°C / 63°F
Dewpoint
14°C / 57°F
Humidity
83%
Altimeter
29.97" Hg
Pressure
1014.92 hPa
Previous

2 hours ago

KAJO 280456Z AUTO 27005KT 10SM CLR 19/15 A2995 RMK AO2 SLP135 T01940150
Observed
May-28 @ 04:56 UTC
Wind
  • 270° at 5 KTS
Visibility
Flight Rules
VFR
Cloud Levels
  • Clear skies
Temperature
19°C / 66°F
Dewpoint
15°C / 59°F
Humidity
78%
Altimeter
29.95" Hg
Pressure
1014.22 hPa
Previous

3 hours ago

KAJO 280356Z AUTO 27005KT 10SM CLR 21/16 A2992 RMK AO2 SLP126 T02110156
Observed
May-28 @ 03:56 UTC
Wind
  • 270° at 5 KTS
Visibility
Flight Rules
VFR
Cloud Levels
  • Clear skies
Temperature
21°C / 70°F
Dewpoint
16°C / 61°F
Humidity
73%
Altimeter
29.92" Hg
Pressure
1013.22 hPa